Forside
METAR-TAF:

METAR-TAF

Lufthavne :

Forrest, Australien

Breddekreds: 30-50-18S, længdekreds: 128-06-54E, højde: 156 m

Aktuelle vejr

Denne rapport blev lavet for 45 minutter siden, kl. 15:00 UTC
Vind 14 kt fra østsydøst
Temperatur 13°C
Fugtighed 67%
Tryk 1019 hPa
Sigt 10 km eller mere

METAR: YFRT 231500Z AUTO 11014KT 9999 // NCD 13/07 Q1019

Tid: 23:45 (15:45 UTC)

Vejrudsigter

Denne rapport blev lavet for 3 timer og 23 minutter siden, kl. 12:22 UTC
Foreløbig gælder fra 23 på 14 UTC til 24 på 02 UTC
Vind 14 kt fra østsydøst
Sigt 10 km eller mere
ingen skyer under 1500m og ingen cumulonimbus
Fra 23 på 1600 UTC
Vind 12 kt fra øst
Sigt 10 km eller mere
ingen skyer under 1500m og ingen cumulonimbus
Fra 23 på 2300 UTC
Vind 18 kt fra østnordøst med vindstød på up til 28 kt
Sigt 10 km eller mere
ingen skyer under 1500m og ingen cumulonimbus

TAF: YFRT 231222Z 2314/2402 12014KT CAVOK FM231600 08012KT CAVOK FM232300 07018G28KT CAVOK

Vejrobservationer og prognoser fra mere end 4000 lufthavne (METAR og TAF).

De gule og røde prikker repræsenterer de meteorologiske stationer.

Flyt musen over at se navnet på stationen.

Så klik over at se vejr observationer og prognoser.

At skifte det kort: Klik på de grønne knapper med et sort kors for at zoome ind; på den grønne knap med en bindestreg for at zoome ud; eller på de grønne pile for tilstødende kort.


METAR-TAF: